sensor_id;sensor_type;location;lat;lon;timestamp;P1;durP1;ratioP1;P2;durP2;ratioP2
13805;SDS011;6974;53.606;9.872;2023-04-28T00:01:41;9.77;;;8.73;;
13805;SDS011;6974;53.606;9.872;2023-04-28T00:04:08;12.30;;;9.57;;
13805;SDS011;6974;53.606;9.872;2023-04-28T00:06:35;14.77;;;9.80;;
13805;SDS011;6974;53.606;9.872;2023-04-28T00:09:02;12.13;;;9.97;;
13805;SDS011;6974;53.606;9.872;2023-04-28T00:11:29;12.47;;;9.63;;
13805;SDS011;6974;53.606;9.872;2023-04-28T00:13:56;11.67;;;9.13;;
13805;SDS011;6974;53.606;9.872;2023-04-28T00:16:24;12.60;;;9.50;;
13805;SDS011;6974;53.606;9.872;2023-04-28T00:18:51;11.17;;;10.13;;
13805;SDS011;6974;53.606;9.872;2023-04-28T00:21:17;14.10;;;10.00;;
13805;SDS011;6974;53.606;9.872;2023-04-28T00:23:44;12.23;;;10.23;;
13805;SDS011;6974;53.606;9.872;2023-04-28T00:26:11;12.00;;;10.17;;
13805;SDS011;6974;53.606;9.872;2023-04-28T00:28:38;13.67;;;9.70;;
13805;SDS011;6974;53.606;9.872;2023-04-28T00:31:08;13.37;;;10.73;;
13805;SDS011;6974;53.606;9.872;2023-04-28T00:33:37;12.00;;;9.93;;
13805;SDS011;6974;53.606;9.872;2023-04-28T00:36:04;10.60;;;9.60;;
13805;SDS011;6974;53.606;9.872;2023-04-28T00:38:32;13.33;;;10.07;;
13805;SDS011;6974;53.606;9.872;2023-04-28T00:40:59;12.43;;;10.03;;
13805;SDS011;6974;53.606;9.872;2023-04-28T00:43:26;13.23;;;10.07;;
13805;SDS011;6974;53.606;9.872;2023-04-28T00:45:53;10.77;;;9.77;;
13805;SDS011;6974;53.606;9.872;2023-04-28T00:48:20;13.17;;;10.10;;
13805;SDS011;6974;53.606;9.872;2023-04-28T00:50:49;10.90;;;9.77;;
13805;SDS011;6974;53.606;9.872;2023-04-28T00:53:17;13.17;;;10.90;;
13805;SDS011;6974;53.606;9.872;2023-04-28T00:55:43;11.87;;;10.53;;
13805;SDS011;6974;53.606;9.872;2023-04-28T00:58:12;11.93;;;10.43;;
13805;SDS011;6974;53.606;9.872;2023-04-28T01:00:38;14.63;;;11.30;;
13805;SDS011;6974;53.606;9.872;2023-04-28T01:03:05;13.20;;;10.60;;
13805;SDS011;6974;53.606;9.872;2023-04-28T01:05:32;11.37;;;10.20;;
13805;SDS011;6974;53.606;9.872;2023-04-28T01:08:01;13.00;;;11.60;;
13805;SDS011;6974;53.606;9.872;2023-04-28T01:10:28;12.20;;;10.53;;
13805;SDS011;6974;53.606;9.872;2023-04-28T01:12:55;13.70;;;11.13;;
13805;SDS011;6974;53.606;9.872;2023-04-28T01:15:22;13.20;;;10.70;;
13805;SDS011;6974;53.606;9.872;2023-04-28T01:17:49;11.87;;;10.57;;
13805;SDS011;6974;53.606;9.872;2023-04-28T01:20:16;13.23;;;10.77;;
13805;SDS011;6974;53.606;9.872;2023-04-28T01:22:43;12.47;;;10.77;;
13805;SDS011;6974;53.606;9.872;2023-04-28T01:25:11;13.10;;;10.20;;
13805;SDS011;6974;53.606;9.872;2023-04-28T01:27:38;13.07;;;10.67;;
13805;SDS011;6974;53.606;9.872;2023-04-28T01:30:05;13.20;;;11.27;;
13805;SDS011;6974;53.606;9.872;2023-04-28T01:32:33;12.27;;;10.43;;
13805;SDS011;6974;53.606;9.872;2023-04-28T01:35:00;13.73;;;12.03;;
13805;SDS011;6974;53.606;9.872;2023-04-28T01:37:27;14.83;;;11.30;;
13805;SDS011;6974;53.606;9.872;2023-04-28T01:39:54;13.30;;;10.43;;
13805;SDS011;6974;53.606;9.872;2023-04-28T01:42:22;12.33;;;11.03;;
13805;SDS011;6974;53.606;9.872;2023-04-28T01:44:49;12.97;;;10.80;;
13805;SDS011;6974;53.606;9.872;2023-04-28T01:47:16;14.70;;;10.83;;
13805;SDS011;6974;53.606;9.872;2023-04-28T01:49:44;11.97;;;10.77;;
13805;SDS011;6974;53.606;9.872;2023-04-28T01:52:12;13.33;;;10.73;;
13805;SDS011;6974;53.606;9.872;2023-04-28T01:54:39;12.10;;;10.80;;
13805;SDS011;6974;53.606;9.872;2023-04-28T01:57:05;13.23;;;10.00;;
13805;SDS011;6974;53.606;9.872;2023-04-28T01:59:34;15.37;;;10.70;;
13805;SDS011;6974;53.606;9.872;2023-04-28T02:02:00;12.43;;;9.80;;
13805;SDS011;6974;53.606;9.872;2023-04-28T02:04:27;14.63;;;10.30;;
13805;SDS011;6974;53.606;9.872;2023-04-28T02:06:54;12.47;;;9.67;;
13805;SDS011;6974;53.606;9.872;2023-04-28T02:09:21;13.23;;;11.13;;
13805;SDS011;6974;53.606;9.872;2023-04-28T02:11:47;11.63;;;10.07;;
13805;SDS011;6974;53.606;9.872;2023-04-28T02:14:14;12.67;;;10.93;;
13805;SDS011;6974;53.606;9.872;2023-04-28T02:16:43;12.03;;;10.50;;
13805;SDS011;6974;53.606;9.872;2023-04-28T02:19:09;13.30;;;10.50;;
13805;SDS011;6974;53.606;9.872;2023-04-28T02:21:37;14.37;;;10.60;;
13805;SDS011;6974;53.606;9.872;2023-04-28T02:24:04;14.73;;;10.83;;
13805;SDS011;6974;53.606;9.872;2023-04-28T02:26:32;12.23;;;10.53;;
13805;SDS011;6974;53.606;9.872;2023-04-28T02:28:59;13.17;;;10.33;;
13805;SDS011;6974;53.606;9.872;2023-04-28T02:31:28;12.53;;;10.57;;
13805;SDS011;6974;53.606;9.872;2023-04-28T02:33:57;15.43;;;10.77;;
13805;SDS011;6974;53.606;9.872;2023-04-28T02:36:23;12.67;;;9.90;;
13805;SDS011;6974;53.606;9.872;2023-04-28T02:38:51;11.47;;;9.73;;
13805;SDS011;6974;53.606;9.872;2023-04-28T02:41:18;11.90;;;10.13;;
13805;SDS011;6974;53.606;9.872;2023-04-28T02:43:45;11.67;;;10.20;;
13805;SDS011;6974;53.606;9.872;2023-04-28T02:46:12;12.37;;;10.33;;
13805;SDS011;6974;53.606;9.872;2023-04-28T02:48:39;11.87;;;10.47;;
13805;SDS011;6974;53.606;9.872;2023-04-28T02:51:07;11.97;;;10.80;;
13805;SDS011;6974;53.606;9.872;2023-04-28T02:53:34;12.77;;;10.93;;
13805;SDS011;6974;53.606;9.872;2023-04-28T02:56:01;12.03;;;10.10;;
13805;SDS011;6974;53.606;9.872;2023-04-28T02:58:28;13.20;;;10.23;;
13805;SDS011;6974;53.606;9.872;2023-04-28T03:00:55;13.60;;;11.07;;
13805;SDS011;6974;53.606;9.872;2023-04-28T03:03:22;12.83;;;9.93;;
13805;SDS011;6974;53.606;9.872;2023-04-28T03:05:49;12.70;;;10.40;;
13805;SDS011;6974;53.606;9.872;2023-04-28T03:08:17;13.27;;;10.47;;
13805;SDS011;6974;53.606;9.872;2023-04-28T03:10:44;11.80;;;10.17;;
13805;SDS011;6974;53.606;9.872;2023-04-28T03:13:11;11.83;;;10.43;;
13805;SDS011;6974;53.606;9.872;2023-04-28T03:15:38;14.43;;;11.07;;
13805;SDS011;6974;53.606;9.872;2023-04-28T03:18:05;14.03;;;10.30;;
13805;SDS011;6974;53.606;9.872;2023-04-28T03:20:32;13.97;;;9.90;;
13805;SDS011;6974;53.606;9.872;2023-04-28T03:22:59;12.67;;;10.67;;
13805;SDS011;6974;53.606;9.872;2023-04-28T03:25:28;16.87;;;10.40;;
13805;SDS011;6974;53.606;9.872;2023-04-28T03:27:54;13.23;;;10.77;;
13805;SDS011;6974;53.606;9.872;2023-04-28T03:30:21;13.37;;;10.30;;
13805;SDS011;6974;53.606;9.872;2023-04-28T03:32:48;12.40;;;10.73;;
13805;SDS011;6974;53.606;9.872;2023-04-28T03:35:15;13.43;;;11.20;;
13805;SDS011;6974;53.606;9.872;2023-04-28T03:37:42;14.03;;;10.93;;
13805;SDS011;6974;53.606;9.872;2023-04-28T03:40:09;11.13;;;9.70;;
13805;SDS011;6974;53.606;9.872;2023-04-28T03:42:38;12.37;;;10.63;;
13805;SDS011;6974;53.606;9.872;2023-04-28T03:45:05;13.63;;;10.70;;
13805;SDS011;6974;53.606;9.872;2023-04-28T03:47:32;12.37;;;10.27;;
13805;SDS011;6974;53.606;9.872;2023-04-28T03:49:59;14.07;;;10.47;;
13805;SDS011;6974;53.606;9.872;2023-04-28T03:52:26;14.27;;;10.43;;
13805;SDS011;6974;53.606;9.872;2023-04-28T03:54:53;12.07;;;9.83;;
13805;SDS011;6974;53.606;9.872;2023-04-28T03:57:20;13.30;;;9.80;;
13805;SDS011;6974;53.606;9.872;2023-04-28T03:59:48;12.33;;;10.33;;
13805;SDS011;6974;53.606;9.872;2023-04-28T04:02:15;13.30;;;10.77;;
13805;SDS011;6974;53.606;9.872;2023-04-28T04:04:42;11.33;;;9.60;;
13805;SDS011;6974;53.606;9.872;2023-04-28T04:07:09;12.53;;;9.80;;
13805;SDS011;6974;53.606;9.872;2023-04-28T04:09:36;11.10;;;9.13;;
13805;SDS011;6974;53.606;9.872;2023-04-28T04:12:03;13.90;;;10.27;;
13805;SDS011;6974;53.606;9.872;2023-04-28T04:14:30;14.53;;;9.70;;
13805;SDS011;6974;53.606;9.872;2023-04-28T04:16:58;12.80;;;10.37;;
13805;SDS011;6974;53.606;9.872;2023-04-28T04:19:25;13.30;;;9.53;;
13805;SDS011;6974;53.606;9.872;2023-04-28T04:21:52;11.80;;;9.47;;
13805;SDS011;6974;53.606;9.872;2023-04-28T04:24:19;13.93;;;10.00;;
13805;SDS011;6974;53.606;9.872;2023-04-28T04:26:45;11.27;;;8.87;;
13805;SDS011;6974;53.606;9.872;2023-04-28T04:29:12;11.90;;;9.57;;
13805;SDS011;6974;53.606;9.872;2023-04-28T04:31:39;9.80;;;8.77;;
13805;SDS011;6974;53.606;9.872;2023-04-28T04:34:07;11.23;;;9.40;;
13805;SDS011;6974;53.606;9.872;2023-04-28T04:36:35;13.53;;;9.23;;
13805;SDS011;6974;53.606;9.872;2023-04-28T04:39:01;12.33;;;8.87;;
13805;SDS011;6974;53.606;9.872;2023-04-28T04:41:28;13.47;;;10.20;;
13805;SDS011;6974;53.606;9.872;2023-04-28T04:43:55;14.47;;;8.97;;
13805;SDS011;6974;53.606;9.872;2023-04-28T04:46:22;12.87;;;9.40;;
13805;SDS011;6974;53.606;9.872;2023-04-28T04:48:49;11.07;;;9.07;;
13805;SDS011;6974;53.606;9.872;2023-04-28T04:51:17;11.07;;;8.27;;
13805;SDS011;6974;53.606;9.872;2023-04-28T04:53:44;11.73;;;9.20;;
13805;SDS011;6974;53.606;9.872;2023-04-28T04:56:11;9.97;;;8.13;;
13805;SDS011;6974;53.606;9.872;2023-04-28T04:58:38;10.43;;;9.10;;
13805;SDS011;6974;53.606;9.872;2023-04-28T05:01:05;10.57;;;8.53;;
13805;SDS011;6974;53.606;9.872;2023-04-28T05:03:33;12.60;;;8.50;;
13805;SDS011;6974;53.606;9.872;2023-04-28T05:06:00;11.20;;;9.13;;
13805;SDS011;6974;53.606;9.872;2023-04-28T05:08:29;10.70;;;8.83;;
13805;SDS011;6974;53.606;9.872;2023-04-28T05:10:56;12.83;;;8.40;;
13805;SDS011;6974;53.606;9.872;2023-04-28T05:13:23;11.87;;;8.43;;
13805;SDS011;6974;53.606;9.872;2023-04-28T05:15:50;10.80;;;8.20;;
13805;SDS011;6974;53.606;9.872;2023-04-28T05:18:16;9.50;;;7.77;;
13805;SDS011;6974;53.606;9.872;2023-04-28T05:20:43;9.80;;;8.10;;
13805;SDS011;6974;53.606;9.872;2023-04-28T05:23:10;11.83;;;8.03;;
13805;SDS011;6974;53.606;9.872;2023-04-28T05:25:38;8.77;;;7.73;;
13805;SDS011;6974;53.606;9.872;2023-04-28T05:28:06;9.70;;;7.90;;
13805;SDS011;6974;53.606;9.872;2023-04-28T05:30:34;10.53;;;6.87;;
13805;SDS011;6974;53.606;9.872;2023-04-28T05:33:01;8.30;;;7.40;;
13805;SDS011;6974;53.606;9.872;2023-04-28T05:35:27;8.30;;;7.03;;
13805;SDS011;6974;53.606;9.872;2023-04-28T05:37:55;10.07;;;7.67;;
13805;SDS011;6974;53.606;9.872;2023-04-28T05:40:22;9.70;;;7.33;;
13805;SDS011;6974;53.606;9.872;2023-04-28T05:42:50;8.13;;;7.13;;
13805;SDS011;6974;53.606;9.872;2023-04-28T05:45:17;8.10;;;7.07;;
13805;SDS011;6974;53.606;9.872;2023-04-28T05:47:44;11.03;;;6.80;;
13805;SDS011;6974;53.606;9.872;2023-04-28T05:50:11;7.97;;;6.83;;
13805;SDS011;6974;53.606;9.872;2023-04-28T05:52:37;7.53;;;6.23;;
13805;SDS011;6974;53.606;9.872;2023-04-28T05:55:05;8.67;;;6.67;;
13805;SDS011;6974;53.606;9.872;2023-04-28T05:57:32;7.40;;;6.07;;
13805;SDS011;6974;53.606;9.872;2023-04-28T06:00:00;6.50;;;5.90;;
13805;SDS011;6974;53.606;9.872;2023-04-28T06:02:27;8.87;;;6.17;;
13805;SDS011;6974;53.606;9.872;2023-04-28T06:04:54;7.33;;;6.57;;
13805;SDS011;6974;53.606;9.872;2023-04-28T06:07:21;8.73;;;5.57;;
13805;SDS011;6974;53.606;9.872;2023-04-28T06:09:49;8.07;;;5.90;;
13805;SDS011;6974;53.606;9.872;2023-04-28T06:12:16;5.93;;;5.20;;
13805;SDS011;6974;53.606;9.872;2023-04-28T06:14:43;7.80;;;5.80;;
13805;SDS011;6974;53.606;9.872;2023-04-28T06:17:11;10.30;;;5.50;;
13805;SDS011;6974;53.606;9.872;2023-04-28T06:19:38;7.20;;;5.30;;
13805;SDS011;6974;53.606;9.872;2023-04-28T06:22:05;6.90;;;5.20;;
13805;SDS011;6974;53.606;9.872;2023-04-28T06:24:32;7.60;;;5.07;;
13805;SDS011;6974;53.606;9.872;2023-04-28T06:26:59;8.47;;;5.50;;
13805;SDS011;6974;53.606;9.872;2023-04-28T06:29:26;6.93;;;5.50;;
13805;SDS011;6974;53.606;9.872;2023-04-28T06:31:53;8.67;;;5.07;;
13805;SDS011;6974;53.606;9.872;2023-04-28T06:34:23;8.40;;;4.97;;
13805;SDS011;6974;53.606;9.872;2023-04-28T06:36:52;5.40;;;4.13;;
13805;SDS011;6974;53.606;9.872;2023-04-28T06:39:19;8.93;;;4.53;;
13805;SDS011;6974;53.606;9.872;2023-04-28T06:41:46;7.30;;;4.70;;
13805;SDS011;6974;53.606;9.872;2023-04-28T06:44:13;8.27;;;4.73;;
13805;SDS011;6974;53.606;9.872;2023-04-28T06:46:40;8.20;;;4.97;;
13805;SDS011;6974;53.606;9.872;2023-04-28T06:49:07;8.10;;;3.93;;
13805;SDS011;6974;53.606;9.872;2023-04-28T06:51:35;5.40;;;4.13;;
13805;SDS011;6974;53.606;9.872;2023-04-28T06:54:02;6.63;;;4.13;;
13805;SDS011;6974;53.606;9.872;2023-04-28T06:56:29;5.77;;;4.13;;
13805;SDS011;6974;53.606;9.872;2023-04-28T06:58:56;6.87;;;4.70;;
13805;SDS011;6974;53.606;9.872;2023-04-28T07:01:23;5.40;;;4.20;;
13805;SDS011;6974;53.606;9.872;2023-04-28T07:03:50;6.03;;;4.27;;
13805;SDS011;6974;53.606;9.872;2023-04-28T07:06:17;9.73;;;4.60;;
13805;SDS011;6974;53.606;9.872;2023-04-28T07:08:45;6.57;;;4.37;;
13805;SDS011;6974;53.606;9.872;2023-04-28T07:11:12;7.43;;;4.07;;
13805;SDS011;6974;53.606;9.872;2023-04-28T07:13:39;5.47;;;4.20;;
13805;SDS011;6974;53.606;9.872;2023-04-28T07:16:06;8.27;;;3.90;;
13805;SDS011;6974;53.606;9.872;2023-04-28T07:18:34;5.83;;;3.80;;
13805;SDS011;6974;53.606;9.872;2023-04-28T07:21:01;5.80;;;3.57;;
13805;SDS011;6974;53.606;9.872;2023-04-28T07:23:28;7.10;;;4.40;;
13805;SDS011;6974;53.606;9.872;2023-04-28T07:25:56;6.43;;;3.73;;
13805;SDS011;6974;53.606;9.872;2023-04-28T07:28:23;8.97;;;3.70;;
13805;SDS011;6974;53.606;9.872;2023-04-28T07:30:50;8.80;;;4.07;;
13805;SDS011;6974;53.606;9.872;2023-04-28T07:33:17;6.47;;;3.73;;
13805;SDS011;6974;53.606;9.872;2023-04-28T07:35:44;5.63;;;3.83;;
13805;SDS011;6974;53.606;9.872;2023-04-28T07:38:11;5.23;;;3.77;;
13805;SDS011;6974;53.606;9.872;2023-04-28T07:40:37;4.73;;;3.57;;
13805;SDS011;6974;53.606;9.872;2023-04-28T07:43:06;7.37;;;4.00;;
13805;SDS011;6974;53.606;9.872;2023-04-28T07:45:33;5.17;;;3.80;;
13805;SDS011;6974;53.606;9.872;2023-04-28T07:48:03;5.40;;;3.80;;
13805;SDS011;6974;53.606;9.872;2023-04-28T07:50:30;6.87;;;4.07;;
13805;SDS011;6974;53.606;9.872;2023-04-28T07:52:57;5.27;;;3.93;;
13805;SDS011;6974;53.606;9.872;2023-04-28T07:55:24;6.07;;;4.00;;
13805;SDS011;6974;53.606;9.872;2023-04-28T07:57:51;6.70;;;4.10;;
13805;SDS011;6974;53.606;9.872;2023-04-28T08:00:20;10.60;;;4.40;;
13805;SDS011;6974;53.606;9.872;2023-04-28T08:02:47;5.03;;;4.03;;
13805;SDS011;6974;53.606;9.872;2023-04-28T08:05:14;5.07;;;4.13;;
13805;SDS011;6974;53.606;9.872;2023-04-28T08:07:42;4.70;;;4.10;;
13805;SDS011;6974;53.606;9.872;2023-04-28T08:10:09;7.20;;;4.33;;
13805;SDS011;6974;53.606;9.872;2023-04-28T08:12:36;4.53;;;3.70;;
13805;SDS011;6974;53.606;9.872;2023-04-28T08:15:05;5.80;;;3.97;;
13805;SDS011;6974;53.606;9.872;2023-04-28T08:17:36;5.70;;;3.90;;
13805;SDS011;6974;53.606;9.872;2023-04-28T08:20:03;7.83;;;3.93;;
13805;SDS011;6974;53.606;9.872;2023-04-28T08:22:31;6.07;;;4.07;;
13805;SDS011;6974;53.606;9.872;2023-04-28T08:24:58;4.40;;;3.67;;
13805;SDS011;6974;53.606;9.872;2023-04-28T08:27:25;6.53;;;3.90;;
13805;SDS011;6974;53.606;9.872;2023-04-28T08:29:52;5.00;;;3.87;;
13805;SDS011;6974;53.606;9.872;2023-04-28T08:32:19;4.10;;;3.70;;
13805;SDS011;6974;53.606;9.872;2023-04-28T08:34:47;4.73;;;4.00;;
13805;SDS011;6974;53.606;9.872;2023-04-28T08:37:14;6.60;;;3.97;;
13805;SDS011;6974;53.606;9.872;2023-04-28T08:39:41;4.80;;;3.90;;
13805;SDS011;6974;53.606;9.872;2023-04-28T08:42:08;6.07;;;3.73;;
13805;SDS011;6974;53.606;9.872;2023-04-28T08:44:35;8.43;;;4.40;;
13805;SDS011;6974;53.606;9.872;2023-04-28T08:47:03;7.10;;;4.40;;
13805;SDS011;6974;53.606;9.872;2023-04-28T08:49:37;6.40;;;4.27;;
13805;SDS011;6974;53.606;9.872;2023-04-28T08:52:08;6.87;;;4.27;;
13805;SDS011;6974;53.606;9.872;2023-04-28T08:54:37;6.73;;;4.87;;
13805;SDS011;6974;53.606;9.872;2023-04-28T08:57:06;7.63;;;4.63;;
13805;SDS011;6974;53.606;9.872;2023-04-28T08:59:35;7.13;;;4.40;;
13805;SDS011;6974;53.606;9.872;2023-04-28T09:02:04;6.43;;;4.40;;
13805;SDS011;6974;53.606;9.872;2023-04-28T09:04:31;6.17;;;5.00;;
13805;SDS011;6974;53.606;9.872;2023-04-28T09:06:59;7.77;;;4.33;;
13805;SDS011;6974;53.606;9.872;2023-04-28T09:09:27;8.73;;;4.20;;
13805;SDS011;6974;53.606;9.872;2023-04-28T09:11:55;6.23;;;4.47;;
13805;SDS011;6974;53.606;9.872;2023-04-28T09:14:24;6.97;;;4.60;;
13805;SDS011;6974;53.606;9.872;2023-04-28T09:16:51;4.83;;;4.17;;
13805;SDS011;6974;53.606;9.872;2023-04-28T09:19:18;5.47;;;4.30;;
13805;SDS011;6974;53.606;9.872;2023-04-28T09:21:46;5.23;;;4.73;;
13805;SDS011;6974;53.606;9.872;2023-04-28T09:24:31;7.53;;;5.23;;
13805;SDS011;6974;53.606;9.872;2023-04-28T09:26:59;5.90;;;4.30;;
13805;SDS011;6974;53.606;9.872;2023-04-28T09:29:27;8.07;;;4.80;;
13805;SDS011;6974;53.606;9.872;2023-04-28T09:31:54;7.10;;;5.10;;
13805;SDS011;6974;53.606;9.872;2023-04-28T09:34:41;9.53;;;4.67;;
13805;SDS011;6974;53.606;9.872;2023-04-28T09:37:13;6.03;;;4.93;;
13805;SDS011;6974;53.606;9.872;2023-04-28T09:39:42;10.00;;;4.93;;
13805;SDS011;6974;53.606;9.872;2023-04-28T09:42:09;5.73;;;4.87;;
13805;SDS011;6974;53.606;9.872;2023-04-28T09:44:36;5.87;;;4.90;;
13805;SDS011;6974;53.606;9.872;2023-04-28T09:47:12;4.90;;;4.40;;
13805;SDS011;6974;53.606;9.872;2023-04-28T09:49:52;9.83;;;4.77;;
13805;SDS011;6974;53.606;9.872;2023-04-28T09:52:20;5.13;;;4.43;;
13805;SDS011;6974;53.606;9.872;2023-04-28T09:54:49;6.60;;;5.03;;
13805;SDS011;6974;53.606;9.872;2023-04-28T09:57:17;5.73;;;4.40;;
13805;SDS011;6974;53.606;9.872;2023-04-28T09:59:45;7.37;;;5.13;;
13805;SDS011;6974;53.606;9.872;2023-04-28T10:02:13;7.97;;;4.93;;
13805;SDS011;6974;53.606;9.872;2023-04-28T10:04:41;8.07;;;4.43;;
13805;SDS011;6974;53.606;9.872;2023-04-28T10:07:09;5.33;;;4.50;;
13805;SDS011;6974;53.606;9.872;2023-04-28T10:09:37;9.47;;;5.00;;
13805;SDS011;6974;53.606;9.872;2023-04-28T10:12:09;6.37;;;4.67;;
13805;SDS011;6974;53.606;9.872;2023-04-28T10:14:36;7.17;;;5.03;;
13805;SDS011;6974;53.606;9.872;2023-04-28T10:17:04;6.83;;;4.80;;
13805;SDS011;6974;53.606;9.872;2023-04-28T10:19:31;5.53;;;4.67;;
13805;SDS011;6974;53.606;9.872;2023-04-28T10:22:01;8.17;;;4.40;;
13805;SDS011;6974;53.606;9.872;2023-04-28T10:24:45;5.73;;;4.70;;
13805;SDS011;6974;53.606;9.872;2023-04-28T10:27:29;8.17;;;4.70;;
13805;SDS011;6974;53.606;9.872;2023-04-28T10:30:08;9.50;;;4.90;;
13805;SDS011;6974;53.606;9.872;2023-04-28T10:32:36;6.43;;;4.43;;
13805;SDS011;6974;53.606;9.872;2023-04-28T10:38:08;10.10;;;5.13;;
13805;SDS011;6974;53.606;9.872;2023-04-28T10:40:37;5.97;;;4.77;;
13805;SDS011;6974;53.606;9.872;2023-04-28T10:43:06;8.77;;;4.87;;
13805;SDS011;6974;53.606;9.872;2023-04-28T10:51:31;7.10;;;5.20;;
13805;SDS011;6974;53.606;9.872;2023-04-28T10:54:14;9.40;;;5.10;;
13805;SDS011;6974;53.606;9.872;2023-04-28T10:59:44;7.20;;;5.07;;
13805;SDS011;6974;53.606;9.872;2023-04-28T11:05:09;6.47;;;5.10;;
13805;SDS011;6974;53.606;9.872;2023-04-28T11:11:16;6.97;;;5.50;;
13805;SDS011;6974;53.606;9.872;2023-04-28T11:13:47;8.47;;;5.13;;
13805;SDS011;6974;53.606;9.872;2023-04-28T11:16:16;6.37;;;5.73;;
13805;SDS011;6974;53.606;9.872;2023-04-28T11:18:48;8.60;;;5.47;;
13805;SDS011;6974;53.606;9.872;2023-04-28T11:21:23;7.80;;;5.57;;
13805;SDS011;6974;53.606;9.872;2023-04-28T11:23:52;10.13;;;5.40;;
13805;SDS011;6974;53.606;9.872;2023-04-28T11:26:19;8.77;;;5.70;;
13805;SDS011;6974;53.606;9.872;2023-04-28T11:28:48;7.00;;;4.53;;
13805;SDS011;6974;53.606;9.872;2023-04-28T11:31:18;5.93;;;5.10;;
13805;SDS011;6974;53.606;9.872;2023-04-28T11:33:48;6.00;;;5.40;;
13805;SDS011;6974;53.606;9.872;2023-04-28T11:36:23;7.07;;;5.43;;
13805;SDS011;6974;53.606;9.872;2023-04-28T11:38:52;8.57;;;5.27;;
13805;SDS011;6974;53.606;9.872;2023-04-28T11:41:19;6.70;;;5.17;;
13805;SDS011;6974;53.606;9.872;2023-04-28T11:43:46;8.07;;;5.43;;
13805;SDS011;6974;53.606;9.872;2023-04-28T11:46:18;9.10;;;6.30;;
13805;SDS011;6974;53.606;9.872;2023-04-28T11:48:46;8.33;;;5.93;;
13805;SDS011;6974;53.606;9.872;2023-04-28T11:51:29;6.03;;;5.27;;
13805;SDS011;6974;53.606;9.872;2023-04-28T11:53:57;5.83;;;5.20;;
13805;SDS011;6974;53.606;9.872;2023-04-28T11:56:24;6.83;;;5.47;;
13805;SDS011;6974;53.606;9.872;2023-04-28T11:59:01;9.40;;;6.17;;
13805;SDS011;6974;53.606;9.872;2023-04-28T12:01:30;8.20;;;5.17;;
13805;SDS011;6974;53.606;9.872;2023-04-28T12:03:58;9.40;;;5.83;;
13805;SDS011;6974;53.606;9.872;2023-04-28T12:06:25;8.83;;;5.20;;
13805;SDS011;6974;53.606;9.872;2023-04-28T12:08:53;8.50;;;5.63;;
13805;SDS011;6974;53.606;9.872;2023-04-28T12:11:21;6.63;;;5.20;;
13805;SDS011;6974;53.606;9.872;2023-04-28T12:14:06;8.27;;;5.77;;
13805;SDS011;6974;53.606;9.872;2023-04-28T12:16:42;6.93;;;5.27;;
13805;SDS011;6974;53.606;9.872;2023-04-28T12:19:10;6.87;;;5.40;;
13805;SDS011;6974;53.606;9.872;2023-04-28T12:21:39;8.37;;;6.00;;
13805;SDS011;6974;53.606;9.872;2023-04-28T12:24:16;6.97;;;5.60;;
13805;SDS011;6974;53.606;9.872;2023-04-28T12:26:44;6.83;;;5.03;;
13805;SDS011;6974;53.606;9.872;2023-04-28T12:32:03;7.13;;;5.40;;
13805;SDS011;6974;53.606;9.872;2023-04-28T12:34:31;6.97;;;5.60;;
13805;SDS011;6974;53.606;9.872;2023-04-28T12:36:58;14.07;;;5.63;;
13805;SDS011;6974;53.606;9.872;2023-04-28T12:39:26;5.43;;;4.73;;
13805;SDS011;6974;53.606;9.872;2023-04-28T12:41:53;6.33;;;5.10;;
13805;SDS011;6974;53.606;9.872;2023-04-28T12:44:20;10.17;;;6.03;;
13805;SDS011;6974;53.606;9.872;2023-04-28T12:46:47;7.13;;;5.50;;
13805;SDS011;6974;53.606;9.872;2023-04-28T12:49:15;5.77;;;5.10;;
13805;SDS011;6974;53.606;9.872;2023-04-28T12:51:42;8.33;;;5.50;;
13805;SDS011;6974;53.606;9.872;2023-04-28T12:54:10;7.27;;;4.90;;
13805;SDS011;6974;53.606;9.872;2023-04-28T12:56:37;7.10;;;5.37;;
13805;SDS011;6974;53.606;9.872;2023-04-28T12:59:03;8.37;;;5.13;;
13805;SDS011;6974;53.606;9.872;2023-04-28T13:01:30;6.67;;;5.83;;
13805;SDS011;6974;53.606;9.872;2023-04-28T13:03:57;6.27;;;5.67;;
13805;SDS011;6974;53.606;9.872;2023-04-28T13:06:26;7.77;;;4.97;;
13805;SDS011;6974;53.606;9.872;2023-04-28T13:08:54;7.60;;;5.27;;
13805;SDS011;6974;53.606;9.872;2023-04-28T13:11:21;6.17;;;5.40;;
13805;SDS011;6974;53.606;9.872;2023-04-28T13:13:51;7.57;;;5.73;;
13805;SDS011;6974;53.606;9.872;2023-04-28T13:16:18;6.63;;;5.83;;
13805;SDS011;6974;53.606;9.872;2023-04-28T13:18:45;8.47;;;5.70;;
13805;SDS011;6974;53.606;9.872;2023-04-28T13:21:13;6.53;;;5.60;;
13805;SDS011;6974;53.606;9.872;2023-04-28T13:23:41;8.27;;;6.13;;
13805;SDS011;6974;53.606;9.872;2023-04-28T13:26:08;8.10;;;5.93;;
13805;SDS011;6974;53.606;9.872;2023-04-28T13:28:35;13.10;;;6.50;;
13805;SDS011;6974;53.606;9.872;2023-04-28T13:31:01;10.67;;;5.50;;
13805;SDS011;6974;53.606;9.872;2023-04-28T13:33:28;6.43;;;5.73;;
13805;SDS011;6974;53.606;9.872;2023-04-28T13:35:56;11.67;;;6.00;;
13805;SDS011;6974;53.606;9.872;2023-04-28T13:38:23;6.57;;;5.43;;
13805;SDS011;6974;53.606;9.872;2023-04-28T13:40:52;7.60;;;5.67;;
13805;SDS011;6974;53.606;9.872;2023-04-28T13:43:19;6.23;;;5.37;;
13805;SDS011;6974;53.606;9.872;2023-04-28T13:45:46;8.67;;;5.57;;
13805;SDS011;6974;53.606;9.872;2023-04-28T13:48:14;6.13;;;5.53;;
13805;SDS011;6974;53.606;9.872;2023-04-28T13:50:41;7.10;;;5.80;;
13805;SDS011;6974;53.606;9.872;2023-04-28T13:53:08;8.10;;;6.13;;
13805;SDS011;6974;53.606;9.872;2023-04-28T13:55:35;8.43;;;5.97;;
13805;SDS011;6974;53.606;9.872;2023-04-28T13:58:03;6.70;;;5.80;;
13805;SDS011;6974;53.606;9.872;2023-04-28T14:00:31;8.43;;;5.63;;
13805;SDS011;6974;53.606;9.872;2023-04-28T14:02:58;8.90;;;6.00;;
13805;SDS011;6974;53.606;9.872;2023-04-28T14:05:25;7.03;;;5.97;;
13805;SDS011;6974;53.606;9.872;2023-04-28T14:07:52;7.03;;;5.93;;
13805;SDS011;6974;53.606;9.872;2023-04-28T14:10:20;10.53;;;5.40;;
13805;SDS011;6974;53.606;9.872;2023-04-28T14:12:47;9.10;;;6.10;;
13805;SDS011;6974;53.606;9.872;2023-04-28T14:15:15;7.60;;;6.10;;
13805;SDS011;6974;53.606;9.872;2023-04-28T14:17:42;8.30;;;6.67;;
13805;SDS011;6974;53.606;9.872;2023-04-28T14:20:10;7.97;;;6.40;;
13805;SDS011;6974;53.606;9.872;2023-04-28T14:22:37;8.70;;;6.23;;
13805;SDS011;6974;53.606;9.872;2023-04-28T14:25:04;7.13;;;6.27;;
13805;SDS011;6974;53.606;9.872;2023-04-28T14:27:32;7.97;;;6.80;;
13805;SDS011;6974;53.606;9.872;2023-04-28T14:29:59;9.93;;;6.73;;
13805;SDS011;6974;53.606;9.872;2023-04-28T14:32:27;9.33;;;5.97;;
13805;SDS011;6974;53.606;9.872;2023-04-28T14:34:54;8.80;;;6.60;;
13805;SDS011;6974;53.606;9.872;2023-04-28T14:37:21;8.57;;;6.67;;
13805;SDS011;6974;53.606;9.872;2023-04-28T14:39:48;11.43;;;7.13;;
13805;SDS011;6974;53.606;9.872;2023-04-28T14:42:15;9.27;;;6.50;;
13805;SDS011;6974;53.606;9.872;2023-04-28T14:44:42;8.27;;;6.83;;
13805;SDS011;6974;53.606;9.872;2023-04-28T14:47:10;11.10;;;7.30;;
13805;SDS011;6974;53.606;9.872;2023-04-28T14:49:39;10.30;;;7.50;;
13805;SDS011;6974;53.606;9.872;2023-04-28T14:52:05;14.60;;;7.40;;
13805;SDS011;6974;53.606;9.872;2023-04-28T14:54:32;9.97;;;7.80;;
13805;SDS011;6974;53.606;9.872;2023-04-28T14:57:04;12.57;;;8.30;;
13805;SDS011;6974;53.606;9.872;2023-04-28T14:59:31;9.77;;;7.77;;
13805;SDS011;6974;53.606;9.872;2023-04-28T15:01:58;11.17;;;8.13;;
13805;SDS011;6974;53.606;9.872;2023-04-28T15:04:25;10.53;;;8.23;;
13805;SDS011;6974;53.606;9.872;2023-04-28T15:06:56;12.00;;;8.13;;
13805;SDS011;6974;53.606;9.872;2023-04-28T15:09:23;9.00;;;8.10;;
13805;SDS011;6974;53.606;9.872;2023-04-28T15:11:50;10.03;;;8.47;;
13805;SDS011;6974;53.606;9.872;2023-04-28T15:14:17;10.67;;;8.43;;
13805;SDS011;6974;53.606;9.872;2023-04-28T15:16:44;11.47;;;8.40;;
13805;SDS011;6974;53.606;9.872;2023-04-28T15:19:11;9.10;;;8.00;;